sensor_id;sensor_type;location;lat;lon;timestamp;pressure;altitude;pressure_sealevel;temperature;humidity
9325;BME280;4701;51.566;6.776;2023-04-15T07:03:41;100745.72;;;7.18;83.57
9325;BME280;4701;51.566;6.776;2023-04-15T07:06:42;100742.94;;;7.30;84.25
9325;BME280;4701;51.566;6.776;2023-04-15T07:09:45;100755.34;;;7.43;85.01
9325;BME280;4701;51.566;6.776;2023-04-15T07:12:47;100746.09;;;7.55;85.97
9325;BME280;4701;51.566;6.776;2023-04-15T07:15:50;100762.03;;;7.69;85.46
9325;BME280;4701;51.566;6.776;2023-04-15T07:18:53;100757.34;;;7.81;85.35
9325;BME280;4701;51.566;6.776;2023-04-15T07:21:55;100764.31;;;7.93;85.19
9325;BME280;4701;51.566;6.776;2023-04-15T07:24:57;100768.81;;;8.05;84.89
9325;BME280;4701;51.566;6.776;2023-04-15T07:27:59;100776.06;;;8.16;84.48
9325;BME280;4701;51.566;6.776;2023-04-15T07:31:01;100776.50;;;8.29;83.90
9325;BME280;4701;51.566;6.776;2023-04-15T07:34:05;100773.13;;;8.39;83.26
9325;BME280;4701;51.566;6.776;2023-04-15T07:37:07;100783.88;;;8.51;83.07
9325;BME280;4701;51.566;6.776;2023-04-15T07:40:10;100784.81;;;8.61;81.98
9325;BME280;4701;51.566;6.776;2023-04-15T07:43:14;100789.56;;;8.71;81.37
9325;BME280;4701;51.566;6.776;2023-04-15T07:46:16;100788.06;;;8.80;81.04
9325;BME280;4701;51.566;6.776;2023-04-15T07:49:19;100784.63;;;8.90;80.08
9325;BME280;4701;51.566;6.776;2023-04-15T07:52:21;100786.91;;;8.98;79.59
9325;BME280;4701;51.566;6.776;2023-04-15T07:55:22;100791.06;;;9.05;79.13
9325;BME280;4701;51.566;6.776;2023-04-15T07:58:24;100785.16;;;9.14;78.68
9325;BME280;4701;51.566;6.776;2023-04-15T08:01:26;100795.00;;;9.20;78.48
9325;BME280;4701;51.566;6.776;2023-04-15T08:04:30;100798.38;;;9.27;77.70
9325;BME280;4701;51.566;6.776;2023-04-15T08:07:33;100800.06;;;9.33;77.26
9325;BME280;4701;51.566;6.776;2023-04-15T08:10:36;100798.78;;;9.40;77.14
9325;BME280;4701;51.566;6.776;2023-04-15T08:13:38;100795.00;;;9.46;76.09
9325;BME280;4701;51.566;6.776;2023-04-15T08:16:40;100810.88;;;9.55;75.38
9325;BME280;4701;51.566;6.776;2023-04-15T08:19:43;100803.03;;;9.58;74.79
9325;BME280;4701;51.566;6.776;2023-04-15T08:22:45;100804.69;;;9.64;74.30
9325;BME280;4701;51.566;6.776;2023-04-15T08:25:51;100801.22;;;9.69;74.12
9325;BME280;4701;51.566;6.776;2023-04-15T08:28:53;100823.84;;;9.74;73.61
9325;BME280;4701;51.566;6.776;2023-04-15T08:31:55;100810.00;;;9.81;73.40
9325;BME280;4701;51.566;6.776;2023-04-15T08:34:58;100821.78;;;9.86;72.55
9325;BME280;4701;51.566;6.776;2023-04-15T08:38:00;100821.00;;;9.91;72.65
9325;BME280;4701;51.566;6.776;2023-04-15T08:41:10;100819.41;;;9.95;72.19
9325;BME280;4701;51.566;6.776;2023-04-15T08:44:13;100827.03;;;9.98;72.23
9325;BME280;4701;51.566;6.776;2023-04-15T08:47:16;100823.81;;;10.06;71.94
9325;BME280;4701;51.566;6.776;2023-04-15T08:50:23;100832.56;;;10.08;71.37
9325;BME280;4701;51.566;6.776;2023-04-15T08:53:28;100840.22;;;10.11;71.29
9325;BME280;4701;51.566;6.776;2023-04-15T08:56:30;100839.41;;;10.16;71.56
9325;BME280;4701;51.566;6.776;2023-04-15T08:59:33;100834.31;;;10.19;71.41
9325;BME280;4701;51.566;6.776;2023-04-15T09:02:35;100844.41;;;10.24;70.96
9325;BME280;4701;51.566;6.776;2023-04-15T09:05:38;100844.72;;;10.28;71.10
9325;BME280;4701;51.566;6.776;2023-04-15T09:08:40;100843.91;;;10.32;70.78
9325;BME280;4701;51.566;6.776;2023-04-15T09:11:42;100848.84;;;10.35;70.58
9325;BME280;4701;51.566;6.776;2023-04-15T09:14:45;100851.84;;;10.39;70.56
9325;BME280;4701;51.566;6.776;2023-04-15T09:17:47;100846.47;;;10.44;70.29
9325;BME280;4701;51.566;6.776;2023-04-15T09:20:52;100854.09;;;10.47;70.30
9325;BME280;4701;51.566;6.776;2023-04-15T09:23:55;100862.56;;;10.50;70.17
9325;BME280;4701;51.566;6.776;2023-04-15T09:26:58;100859.34;;;10.53;70.80
9325;BME280;4701;51.566;6.776;2023-04-15T09:30:01;100877.88;;;10.56;71.05
9325;BME280;4701;51.566;6.776;2023-04-15T09:33:03;100879.81;;;10.61;70.84
9325;BME280;4701;51.566;6.776;2023-04-15T09:36:09;100873.81;;;10.64;71.02
9325;BME280;4701;51.566;6.776;2023-04-15T09:39:11;100880.66;;;10.67;70.87
9325;BME280;4701;51.566;6.776;2023-04-15T09:42:13;100886.66;;;10.69;71.11
9325;BME280;4701;51.566;6.776;2023-04-15T09:45:16;100889.69;;;10.72;70.91
9325;BME280;4701;51.566;6.776;2023-04-15T09:48:19;100883.19;;;10.78;70.51
9325;BME280;4701;51.566;6.776;2023-04-15T09:51:33;100888.91;;;10.82;70.31
9325;BME280;4701;51.566;6.776;2023-04-15T09:54:36;100888.66;;;10.83;70.74
9325;BME280;4701;51.566;6.776;2023-04-15T09:57:39;100893.84;;;10.85;70.73
9325;BME280;4701;51.566;6.776;2023-04-15T10:00:42;100895.50;;;10.91;70.85
9325;BME280;4701;51.566;6.776;2023-04-15T10:03:44;100901.53;;;10.93;70.51
9325;BME280;4701;51.566;6.776;2023-04-15T10:06:48;100900.19;;;10.95;70.80
9325;BME280;4701;51.566;6.776;2023-04-15T10:09:50;100919.56;;;10.99;71.08
9325;BME280;4701;51.566;6.776;2023-04-15T10:12:53;100908.94;;;11.03;70.82
9325;BME280;4701;51.566;6.776;2023-04-15T10:15:57;100911.16;;;11.06;70.18
9325;BME280;4701;51.566;6.776;2023-04-15T10:19:01;100910.59;;;11.09;70.11
9325;BME280;4701;51.566;6.776;2023-04-15T10:22:05;100922.91;;;11.11;70.52
9325;BME280;4701;51.566;6.776;2023-04-15T10:25:08;100919.66;;;11.14;70.63
9325;BME280;4701;51.566;6.776;2023-04-15T10:28:14;100922.09;;;11.16;70.39
9325;BME280;4701;51.566;6.776;2023-04-15T10:31:17;100923.47;;;11.18;70.28
9325;BME280;4701;51.566;6.776;2023-04-15T10:34:19;100924.84;;;11.21;70.25
9325;BME280;4701;51.566;6.776;2023-04-15T10:37:33;100932.78;;;11.22;70.39
9325;BME280;4701;51.566;6.776;2023-04-15T10:40:38;100938.75;;;11.24;70.20
9325;BME280;4701;51.566;6.776;2023-04-15T10:43:45;100943.97;;;11.26;69.85
9325;BME280;4701;51.566;6.776;2023-04-15T10:46:50;100935.78;;;11.26;69.74
9325;BME280;4701;51.566;6.776;2023-04-15T10:49:56;100937.41;;;11.27;69.59
9325;BME280;4701;51.566;6.776;2023-04-15T10:53:01;100940.16;;;11.27;69.85
9325;BME280;4701;51.566;6.776;2023-04-15T10:56:04;100935.50;;;11.27;69.85
9325;BME280;4701;51.566;6.776;2023-04-15T10:59:06;100944.53;;;11.28;69.74
9325;BME280;4701;51.566;6.776;2023-04-15T11:02:12;100948.63;;;11.30;69.41
9325;BME280;4701;51.566;6.776;2023-04-15T11:05:15;100955.19;;;11.29;68.75
9325;BME280;4701;51.566;6.776;2023-04-15T11:08:21;100956.25;;;11.28;68.72
9325;BME280;4701;51.566;6.776;2023-04-15T11:12:06;100952.72;;;11.28;68.73
9325;BME280;4701;51.566;6.776;2023-04-15T11:15:26;100955.69;;;11.26;68.96
9325;BME280;4701;51.566;6.776;2023-04-15T11:18:31;100955.44;;;11.28;68.64
9325;BME280;4701;51.566;6.776;2023-04-15T11:21:33;100964.72;;;11.27;68.38
9325;BME280;4701;51.566;6.776;2023-04-15T11:24:46;100969.66;;;11.30;68.58
9325;BME280;4701;51.566;6.776;2023-04-15T11:27:50;100970.47;;;11.30;67.99
9325;BME280;4701;51.566;6.776;2023-04-15T11:30:52;100972.09;;;11.31;67.99
9325;BME280;4701;51.566;6.776;2023-04-15T11:33:56;100967.75;;;11.35;67.62
9325;BME280;4701;51.566;6.776;2023-04-15T11:36:59;100969.09;;;11.33;68.00
9325;BME280;4701;51.566;6.776;2023-04-15T11:40:03;100970.47;;;11.35;67.78
9325;BME280;4701;51.566;6.776;2023-04-15T11:43:08;100980.88;;;11.38;68.12
9325;BME280;4701;51.566;6.776;2023-04-15T11:46:10;100979.25;;;11.43;68.15
9325;BME280;4701;51.566;6.776;2023-04-15T11:49:25;100994.28;;;11.50;67.75
9325;BME280;4701;51.566;6.776;2023-04-15T11:52:27;100987.22;;;11.54;67.73
9325;BME280;4701;51.566;6.776;2023-04-15T11:55:30;100985.88;;;11.57;67.72
9325;BME280;4701;51.566;6.776;2023-04-15T11:58:33;100991.84;;;11.59;67.55
9325;BME280;4701;51.566;6.776;2023-04-15T12:01:37;100986.44;;;11.64;67.32
9325;BME280;4701;51.566;6.776;2023-04-15T12:04:40;100995.44;;;11.64;67.41
9325;BME280;4701;51.566;6.776;2023-04-15T12:07:58;101003.09;;;11.67;67.35
9325;BME280;4701;51.566;6.776;2023-04-15T12:11:01;100998.19;;;11.69;67.13
9325;BME280;4701;51.566;6.776;2023-04-15T12:14:06;101006.13;;;11.71;67.37
9325;BME280;4701;51.566;6.776;2023-04-15T12:17:09;101016.78;;;11.72;66.99
9325;BME280;4701;51.566;6.776;2023-04-15T12:20:12;101012.97;;;11.73;66.86
9325;BME280;4701;51.566;6.776;2023-04-15T12:23:18;101012.41;;;11.71;66.64
9325;BME280;4701;51.566;6.776;2023-04-15T12:26:28;101012.66;;;11.70;66.54
9325;BME280;4701;51.566;6.776;2023-04-15T12:29:31;101011.84;;;11.69;66.74
9325;BME280;4701;51.566;6.776;2023-04-15T12:32:34;101022.75;;;11.69;67.01
9325;BME280;4701;51.566;6.776;2023-04-15T12:35:36;101031.78;;;11.70;66.84
9325;BME280;4701;51.566;6.776;2023-04-15T12:38:38;101030.13;;;11.69;66.93
9325;BME280;4701;51.566;6.776;2023-04-15T12:41:42;101026.31;;;11.70;66.64
9325;BME280;4701;51.566;6.776;2023-04-15T12:44:44;101039.97;;;11.70;66.58
9325;BME280;4701;51.566;6.776;2023-04-15T12:47:46;101034.75;;;11.68;66.82
9325;BME280;4701;51.566;6.776;2023-04-15T12:50:48;101054.41;;;11.65;67.29
9325;BME280;4701;51.566;6.776;2023-04-15T12:53:50;101061.25;;;11.63;67.43
9325;BME280;4701;51.566;6.776;2023-04-15T12:56:54;101055.47;;;11.59;67.37
9325;BME280;4701;51.566;6.776;2023-04-15T12:59:56;101053.28;;;11.56;67.71
9325;BME280;4701;51.566;6.776;2023-04-15T13:02:58;101066.66;;;11.58;67.86
9325;BME280;4701;51.566;6.776;2023-04-15T13:06:00;101071.28;;;11.57;67.64
9325;BME280;4701;51.566;6.776;2023-04-15T13:09:04;101077.56;;;11.58;68.14
9325;BME280;4701;51.566;6.776;2023-04-15T13:12:08;101077.56;;;11.58;68.04
9325;BME280;4701;51.566;6.776;2023-04-15T13:15:13;101077.56;;;11.58;67.98
9325;BME280;4701;51.566;6.776;2023-04-15T13:18:15;101088.22;;;11.59;68.07
9325;BME280;4701;51.566;6.776;2023-04-15T13:21:17;101085.25;;;11.61;67.93
9325;BME280;4701;51.566;6.776;2023-04-15T13:24:19;101091.78;;;11.60;67.94
9325;BME280;4701;51.566;6.776;2023-04-15T13:27:22;101100.81;;;11.60;67.70
9325;BME280;4701;51.566;6.776;2023-04-15T13:30:24;101107.34;;;11.59;67.83
9325;BME280;4701;51.566;6.776;2023-04-15T13:33:27;101096.69;;;11.58;67.44
9325;BME280;4701;51.566;6.776;2023-04-15T13:36:29;101112.25;;;11.57;66.74
9325;BME280;4701;51.566;6.776;2023-04-15T13:39:31;101117.69;;;11.52;66.75
9325;BME280;4701;51.566;6.776;2023-04-15T13:42:34;101122.84;;;11.49;67.20
9325;BME280;4701;51.566;6.776;2023-04-15T13:45:36;101117.09;;;11.45;66.88
9325;BME280;4701;51.566;6.776;2023-04-15T13:48:38;101121.41;;;11.41;67.21
9325;BME280;4701;51.566;6.776;2023-04-15T13:51:40;101134.53;;;11.39;66.97
9325;BME280;4701;51.566;6.776;2023-04-15T13:54:41;101131.75;;;11.34;67.00
9325;BME280;4701;51.566;6.776;2023-04-15T13:57:45;101126.25;;;11.29;67.59
9325;BME280;4701;51.566;6.776;2023-04-15T14:00:47;101137.69;;;11.26;67.48
9325;BME280;4701;51.566;6.776;2023-04-15T14:03:49;101143.66;;;11.23;67.92
9325;BME280;4701;51.566;6.776;2023-04-15T14:06:51;101132.22;;;11.21;67.95
9325;BME280;4701;51.566;6.776;2023-04-15T14:09:53;101141.47;;;11.20;68.12
9325;BME280;4701;51.566;6.776;2023-04-15T14:12:57;101142.00;;;11.17;68.11
9325;BME280;4701;51.566;6.776;2023-04-15T14:15:59;101149.34;;;11.16;68.49
9325;BME280;4701;51.566;6.776;2023-04-15T14:19:01;101155.63;;;11.17;68.21
9325;BME280;4701;51.566;6.776;2023-04-15T14:22:03;101163.81;;;11.17;68.19
9325;BME280;4701;51.566;6.776;2023-04-15T14:25:06;101163.56;;;11.18;68.19
9325;BME280;4701;51.566;6.776;2023-04-15T14:28:09;101170.34;;;11.16;68.39
9325;BME280;4701;51.566;6.776;2023-04-15T14:31:11;101174.97;;;11.15;68.27
9325;BME280;4701;51.566;6.776;2023-04-15T14:34:13;101176.88;;;11.15;68.39
9325;BME280;4701;51.566;6.776;2023-04-15T14:37:15;101168.97;;;11.13;68.36
9325;BME280;4701;51.566;6.776;2023-04-15T14:40:17;101177.44;;;11.12;68.22
9325;BME280;4701;51.566;6.776;2023-04-15T14:43:21;101184.47;;;11.08;68.75
9325;BME280;4701;51.566;6.776;2023-04-15T14:46:22;101177.09;;;11.08;69.00
9325;BME280;4701;51.566;6.776;2023-04-15T14:49:24;101198.94;;;11.08;68.74
9325;BME280;4701;51.566;6.776;2023-04-15T14:52:26;101190.13;;;11.01;68.87
9325;BME280;4701;51.566;6.776;2023-04-15T14:55:28;101191.47;;;10.98;69.17
9325;BME280;4701;51.566;6.776;2023-04-15T14:58:35;101203.47;;;10.97;69.50
9325;BME280;4701;51.566;6.776;2023-04-15T15:01:36;101195.28;;;10.97;69.27
9325;BME280;4701;51.566;6.776;2023-04-15T15:04:38;101206.72;;;10.94;69.65
9325;BME280;4701;51.566;6.776;2023-04-15T15:07:41;101214.31;;;10.92;70.41
9325;BME280;4701;51.566;6.776;2023-04-15T15:10:43;101208.03;;;10.92;70.61
9325;BME280;4701;51.566;6.776;2023-04-15T15:13:46;101212.94;;;10.90;70.96
9325;BME280;4701;51.566;6.776;2023-04-15T15:16:48;101212.09;;;10.89;71.44
9325;BME280;4701;51.566;6.776;2023-04-15T15:19:50;101217.84;;;10.88;71.50
9325;BME280;4701;51.566;6.776;2023-04-15T15:22:52;101220.81;;;10.86;71.78
9325;BME280;4701;51.566;6.776;2023-04-15T15:25:54;101219.16;;;10.85;71.89
9325;BME280;4701;51.566;6.776;2023-04-15T15:28:57;101228.69;;;10.83;71.93
9325;BME280;4701;51.566;6.776;2023-04-15T15:31:59;101233.00;;;10.79;71.92
9325;BME280;4701;51.566;6.776;2023-04-15T15:35:01;101242.03;;;10.79;72.39
9325;BME280;4701;51.566;6.776;2023-04-15T15:38:03;101236.56;;;10.79;72.44
9325;BME280;4701;51.566;6.776;2023-04-15T15:41:05;101243.34;;;10.77;72.00
9325;BME280;4701;51.566;6.776;2023-04-15T15:44:09;101246.66;;;10.79;72.44
9325;BME280;4701;51.566;6.776;2023-04-15T15:47:11;101250.38;;;10.73;72.35
9325;BME280;4701;51.566;6.776;2023-04-15T15:50:13;101256.34;;;10.70;72.75
9325;BME280;4701;51.566;6.776;2023-04-15T15:53:15;101259.81;;;10.65;73.01
9325;BME280;4701;51.566;6.776;2023-04-15T15:56:20;101267.72;;;10.61;73.26
9325;BME280;4701;51.566;6.776;2023-04-15T15:59:23;101264.41;;;10.59;73.76
9325;BME280;4701;51.566;6.776;2023-04-15T16:02:25;101274.72;;;10.57;73.61
9325;BME280;4701;51.566;6.776;2023-04-15T16:05:27;101268.69;;;10.55;73.91
9325;BME280;4701;51.566;6.776;2023-04-15T16:08:29;101270.88;;;10.53;74.49
9325;BME280;4701;51.566;6.776;2023-04-15T16:11:31;101278.22;;;10.53;74.54
9325;BME280;4701;51.566;6.776;2023-04-15T16:14:34;101275.41;;;10.48;74.94
9325;BME280;4701;51.566;6.776;2023-04-15T16:17:36;101273.78;;;10.47;74.43
9325;BME280;4701;51.566;6.776;2023-04-15T16:20:38;101282.47;;;10.44;74.97
9325;BME280;4701;51.566;6.776;2023-04-15T16:23:40;101275.13;;;10.44;75.48
9325;BME280;4701;51.566;6.776;2023-04-15T16:26:42;101276.69;;;10.40;74.79
9325;BME280;4701;51.566;6.776;2023-04-15T16:29:45;101282.31;;;10.34;75.05
9325;BME280;4701;51.566;6.776;2023-04-15T16:32:47;101291.81;;;10.31;75.15
9325;BME280;4701;51.566;6.776;2023-04-15T16:35:49;101301.91;;;10.31;75.77
9325;BME280;4701;51.566;6.776;2023-04-15T16:38:51;101294.25;;;10.28;75.90
9325;BME280;4701;51.566;6.776;2023-04-15T16:41:53;101301.00;;;10.25;75.56
9325;BME280;4701;51.566;6.776;2023-04-15T16:44:58;101305.56;;;10.19;75.54
9325;BME280;4701;51.566;6.776;2023-04-15T16:48:00;101312.09;;;10.18;75.98
9325;BME280;4701;51.566;6.776;2023-04-15T16:51:02;101309.56;;;10.17;75.92
9325;BME280;4701;51.566;6.776;2023-04-15T16:54:04;101313.16;;;10.17;76.76
9325;BME280;4701;51.566;6.776;2023-04-15T16:57:06;101314.44;;;10.15;76.00
9325;BME280;4701;51.566;6.776;2023-04-15T17:00:10;101320.66;;;10.10;76.11
9325;BME280;4701;51.566;6.776;2023-04-15T17:03:11;101317.34;;;10.08;76.46
9325;BME280;4701;51.566;6.776;2023-04-15T17:06:13;101315.69;;;10.07;76.16
9325;BME280;4701;51.566;6.776;2023-04-15T17:09:15;101323.88;;;10.07;76.61
9325;BME280;4701;51.566;6.776;2023-04-15T17:12:17;101325.53;;;10.08;76.55
9325;BME280;4701;51.566;6.776;2023-04-15T17:15:21;101337.97;;;10.04;76.30
9325;BME280;4701;51.566;6.776;2023-04-15T17:18:22;101338.78;;;10.05;76.59
9325;BME280;4701;51.566;6.776;2023-04-15T17:21:24;101337.41;;;10.02;76.53
9325;BME280;4701;51.566;6.776;2023-04-15T17:24:27;101346.41;;;10.03;76.89
9325;BME280;4701;51.566;6.776;2023-04-15T17:27:29;101351.53;;;9.99;76.95
9325;BME280;4701;51.566;6.776;2023-04-15T17:30:32;101356.38;;;9.97;76.81
9325;BME280;4701;51.566;6.776;2023-04-15T17:33:34;101358.88;;;9.99;77.15
9325;BME280;4701;51.566;6.776;2023-04-15T17:36:36;101361.00;;;9.97;77.47
9325;BME280;4701;51.566;6.776;2023-04-15T17:39:38;101363.41;;;9.93;77.15
9325;BME280;4701;51.566;6.776;2023-04-15T17:42:40;101368.03;;;9.93;77.16
9325;BME280;4701;51.566;6.776;2023-04-15T17:45:43;101379.16;;;9.91;77.70
9325;BME280;4701;51.566;6.776;2023-04-15T17:48:45;101378.81;;;9.87;77.87
9325;BME280;4701;51.566;6.776;2023-04-15T17:51:48;101382.38;;;9.88;77.48
9325;BME280;4701;51.566;6.776;2023-04-15T17:54:50;101392.44;;;9.87;77.50
9325;BME280;4701;51.566;6.776;2023-04-15T17:57:52;101394.59;;;9.85;77.60
9325;BME280;4701;51.566;6.776;2023-04-15T18:00:55;101396.50;;;9.85;77.20
9325;BME280;4701;51.566;6.776;2023-04-15T18:03:57;101401.34;;;9.83;78.14
9325;BME280;4701;51.566;6.776;2023-04-15T18:06:59;101411.91;;;9.79;77.90
9325;BME280;4701;51.566;6.776;2023-04-15T18:10:00;101415.97;;;9.77;77.94
9325;BME280;4701;51.566;6.776;2023-04-15T18:13:03;101411.56;;;9.76;78.29
9325;BME280;4701;51.566;6.776;2023-04-15T18:16:06;101416.44;;;9.74;78.06
9325;BME280;4701;51.566;6.776;2023-04-15T18:19:09;101423.19;;;9.71;78.28
9325;BME280;4701;51.566;6.776;2023-04-15T18:22:10;101412.06;;;9.73;78.54
9325;BME280;4701;51.566;6.776;2023-04-15T18:25:12;101418.56;;;9.72;78.49
9325;BME280;4701;51.566;6.776;2023-04-15T18:28:14;101434.06;;;9.71;79.38
9325;BME280;4701;51.566;6.776;2023-04-15T18:31:17;101425.59;;;9.68;79.09
9325;BME280;4701;51.566;6.776;2023-04-15T18:34:19;101441.31;;;9.66;78.99
9325;BME280;4701;51.566;6.776;2023-04-15T18:37:21;101441.81;;;9.63;79.24
9325;BME280;4701;51.566;6.776;2023-04-15T18:40:23;101445.59;;;9.62;78.68
9325;BME280;4701;51.566;6.776;2023-04-15T18:43:25;101441.25;;;9.61;79.83
9325;BME280;4701;51.566;6.776;2023-04-15T18:46:28;101454.25;;;9.59;79.13
9325;BME280;4701;51.566;6.776;2023-04-15T18:49:31;101460.19;;;9.56;79.84
9325;BME280;4701;51.566;6.776;2023-04-15T18:52:33;101472.97;;;9.55;79.92
9325;BME280;4701;51.566;6.776;2023-04-15T18:55:35;101466.94;;;9.53;79.43
9325;BME280;4701;51.566;6.776;2023-04-15T18:58:37;101470.97;;;9.51;80.26
9325;BME280;4701;51.566;6.776;2023-04-15T19:01:40;101477.47;;;9.49;80.51
9325;BME280;4701;51.566;6.776;2023-04-15T19:04:42;101474.75;;;9.49;80.47
9325;BME280;4701;51.566;6.776;2023-04-15T19:07:44;101468.50;;;9.49;80.49
9325;BME280;4701;51.566;6.776;2023-04-15T19:10:46;101490.50;;;9.47;81.09
9325;BME280;4701;51.566;6.776;2023-04-15T19:13:48;101494.28;;;9.46;80.92
9325;BME280;4701;51.566;6.776;2023-04-15T19:16:53;101495.94;;;9.47;81.84
9325;BME280;4701;51.566;6.776;2023-04-15T19:19:55;101500.22;;;9.43;81.53
9325;BME280;4701;51.566;6.776;2023-04-15T19:22:57;101507.78;;;9.41;81.70
9325;BME280;4701;51.566;6.776;2023-04-15T19:25:59;101516.44;;;9.38;81.59
9325;BME280;4701;51.566;6.776;2023-04-15T19:29:01;101517.50;;;9.37;82.32
9325;BME280;4701;51.566;6.776;2023-04-15T19:32:04;101522.38;;;9.35;82.63
9325;BME280;4701;51.566;6.776;2023-04-15T19:35:06;101524.50;;;9.33;82.90
9325;BME280;4701;51.566;6.776;2023-04-15T19:38:08;101528.28;;;9.32;83.25
9325;BME280;4701;51.566;6.776;2023-04-15T19:41:10;101536.44;;;9.32;83.72
9325;BME280;4701;51.566;6.776;2023-04-15T19:44:12;101537.72;;;9.30;83.06
9325;BME280;4701;51.566;6.776;2023-04-15T19:47:16;101536.31;;;9.27;83.37
9325;BME280;4701;51.566;6.776;2023-04-15T19:50:17;101539.84;;;9.28;83.68
9325;BME280;4701;51.566;6.776;2023-04-15T19:53:23;101544.72;;;9.26;84.08
9325;BME280;4701;51.566;6.776;2023-04-15T19:56:26;101544.38;;;9.22;84.40
9325;BME280;4701;51.566;6.776;2023-04-15T19:59:28;101546.72;;;9.19;83.78
9325;BME280;4701;51.566;6.776;2023-04-15T20:02:31;101541.28;;;9.19;84.68
9325;BME280;4701;51.566;6.776;2023-04-15T20:05:33;101540.00;;;9.21;84.75
9325;BME280;4701;51.566;6.776;2023-04-15T20:08:35;101543.44;;;9.17;84.51
9325;BME280;4701;51.566;6.776;2023-04-15T20:11:37;101547.44;;;9.14;85.16
9325;BME280;4701;51.566;6.776;2023-04-15T20:14:39;101547.91;;;9.11;84.86
9325;BME280;4701;51.566;6.776;2023-04-15T20:17:42;101552.78;;;9.09;85.29
9325;BME280;4701;51.566;6.776;2023-04-15T20:20:44;101554.44;;;9.10;85.61
9325;BME280;4701;51.566;6.776;2023-04-15T20:23:46;101548.75;;;9.11;85.72
9325;BME280;4701;51.566;6.776;2023-04-15T20:26:48;101553.84;;;9.08;85.72
9325;BME280;4701;51.566;6.776;2023-04-15T20:29:49;101555.13;;;9.05;86.05
9325;BME280;4701;51.566;6.776;2023-04-15T20:32:53;101541.78;;;9.04;86.57
9325;BME280;4701;51.566;6.776;2023-04-15T20:35:54;101549.59;;;9.00;86.09
9325;BME280;4701;51.566;6.776;2023-04-15T20:38:56;101548.16;;;8.98;86.01
9325;BME280;4701;51.566;6.776;2023-04-15T20:41:58;101546.50;;;8.97;86.38
9325;BME280;4701;51.566;6.776;2023-04-15T20:45:01;101550.28;;;8.96;86.28
9325;BME280;4701;51.566;6.776;2023-04-15T20:48:04;101551.13;;;8.96;87.05
9325;BME280;4701;51.566;6.776;2023-04-15T20:51:06;101562.00;;;8.96;87.02
9325;BME280;4701;51.566;6.776;2023-04-15T20:54:08;101569.81;;;8.93;87.15
9325;BME280;4701;51.566;6.776;2023-04-15T20:57:10;101568.72;;;8.94;87.69
9325;BME280;4701;51.566;6.776;2023-04-15T21:00:12;101575.25;;;8.93;87.40
